createdAt,value
2023-05-11T00:02:01.458Z,4.32
2023-05-11T00:04:28.631Z,3.08
2023-05-11T00:06:56.124Z,5.47
2023-05-11T00:09:23.126Z,3.13
2023-05-11T00:11:52.322Z,2.70
2023-05-11T00:14:19.397Z,2.33
2023-05-11T00:16:46.409Z,3.65
2023-05-11T00:19:13.379Z,3.47
2023-05-11T00:21:40.590Z,3.75
2023-05-11T00:24:08.173Z,6.10
2023-05-11T00:26:35.135Z,3.15
2023-05-11T00:29:02.118Z,3.78
2023-05-11T00:31:30.569Z,5.40
2023-05-11T00:33:57.821Z,5.55
2023-05-11T00:36:25.320Z,4.85
2023-05-11T00:38:52.986Z,6.13
2023-05-11T00:41:20.014Z,3.20
2023-05-11T00:43:47.120Z,3.33
2023-05-11T00:46:14.127Z,4.85
2023-05-11T00:48:41.121Z,3.47
2023-05-11T00:51:08.137Z,5.50
2023-05-11T00:53:35.184Z,3.60
2023-05-11T00:56:02.404Z,4.85
2023-05-11T00:58:29.774Z,3.70
2023-05-11T01:00:56.771Z,4.20
2023-05-11T01:03:23.895Z,5.40
2023-05-11T01:06:21.643Z,3.03
2023-05-11T01:08:57.167Z,4.10
2023-05-11T01:11:46.898Z,3.90
2023-05-11T01:14:16.806Z,7.18
2023-05-11T01:19:18.930Z,5.40
2023-05-11T01:21:45.915Z,5.13
2023-05-11T01:24:21.366Z,5.25
2023-05-11T01:27:26.079Z,5.82
2023-05-11T01:30:20.197Z,4.05
2023-05-11T01:32:47.359Z,3.50
2023-05-11T01:35:22.546Z,3.70
2023-05-11T01:37:51.571Z,3.63
2023-05-11T01:40:19.166Z,5.30
2023-05-11T01:42:48.703Z,5.60
2023-05-11T01:45:15.889Z,4.80
2023-05-11T01:47:44.025Z,3.72
2023-05-11T01:50:11.099Z,4.68
2023-05-11T01:52:38.864Z,5.68
2023-05-11T01:55:06.411Z,4.05
2023-05-11T01:57:33.481Z,3.88
2023-05-11T02:00:00.652Z,5.18
2023-05-11T02:02:27.864Z,3.60
2023-05-11T02:04:55.081Z,5.25
2023-05-11T02:07:22.137Z,3.53
2023-05-11T02:09:50.170Z,3.25
2023-05-11T02:12:18.481Z,4.22
2023-05-11T02:14:46.233Z,3.75
2023-05-11T02:17:13.199Z,4.53
2023-05-11T02:19:40.387Z,3.15
2023-05-11T02:22:07.355Z,3.50
2023-05-11T02:24:34.326Z,5.00
2023-05-11T02:27:02.284Z,4.25
2023-05-11T02:29:29.418Z,3.92
2023-05-11T02:32:00.682Z,3.53
2023-05-11T02:34:38.985Z,4.07
2023-05-11T02:37:07.330Z,3.33
2023-05-11T02:39:35.951Z,3.97
2023-05-11T02:42:09.731Z,3.65
2023-05-11T02:44:37.308Z,5.25
2023-05-11T02:47:04.819Z,3.53
2023-05-11T02:49:33.327Z,3.60
2023-05-11T02:52:01.251Z,3.60
2023-05-11T02:54:28.736Z,3.30
2023-05-11T02:56:56.436Z,3.53
2023-05-11T02:59:24.998Z,4.28
2023-05-11T03:01:52.664Z,3.55
2023-05-11T03:04:19.836Z,3.60
2023-05-11T03:06:47.077Z,3.45
2023-05-11T03:09:14.150Z,3.85
2023-05-11T03:11:45.363Z,3.83
2023-05-11T03:14:12.469Z,3.33
2023-05-11T03:16:39.954Z,3.90
2023-05-11T03:19:08.254Z,3.97
2023-05-11T03:21:36.476Z,3.15
2023-05-11T03:24:05.737Z,4.43
2023-05-11T03:26:32.835Z,3.55
2023-05-11T03:29:00.361Z,3.78
2023-05-11T03:31:27.642Z,4.15
2023-05-11T03:33:55.001Z,3.75
2023-05-11T03:36:22.712Z,4.40
2023-05-11T03:38:50.298Z,3.83
2023-05-11T03:41:17.955Z,3.08
2023-05-11T03:43:51.634Z,5.15
2023-05-11T03:46:20.917Z,2.83
2023-05-11T03:48:48.193Z,3.65
2023-05-11T03:51:19.954Z,3.38
2023-05-11T03:53:46.986Z,3.65
2023-05-11T03:56:14.032Z,4.30
2023-05-11T03:58:41.209Z,4.05
2023-05-11T04:01:11.225Z,3.13
2023-05-11T04:03:51.558Z,3.30
2023-05-11T04:06:19.160Z,3.55
2023-05-11T04:08:50.628Z,4.03
2023-05-11T04:11:17.702Z,4.35
2023-05-11T04:13:44.841Z,4.45
2023-05-11T04:16:11.908Z,4.13
2023-05-11T04:18:39.027Z,3.70
2023-05-11T04:21:06.881Z,4.50
2023-05-11T04:23:33.841Z,3.90
2023-05-11T04:26:00.883Z,7.38
2023-05-11T04:28:28.147Z,4.18
2023-05-11T04:30:56.026Z,4.43
2023-05-11T04:33:23.672Z,4.82
2023-05-11T04:35:51.863Z,4.65
2023-05-11T04:38:19.576Z,5.35
2023-05-11T04:40:48.009Z,3.95
2023-05-11T04:43:16.125Z,5.40
2023-05-11T04:45:48.395Z,4.10
2023-05-11T04:48:20.318Z,4.88
2023-05-11T04:50:47.946Z,5.55
2023-05-11T04:53:16.822Z,5.63
2023-05-11T04:55:44.338Z,5.03
2023-05-11T04:58:12.065Z,5.88
2023-05-11T05:00:39.127Z,5.22
2023-05-11T05:03:06.169Z,4.53
2023-05-11T05:05:33.299Z,4.53
2023-05-11T05:08:00.845Z,4.70
2023-05-11T05:10:27.784Z,5.85
2023-05-11T05:12:54.801Z,5.82
2023-05-11T05:15:22.016Z,6.78
2023-05-11T05:17:49.199Z,5.10
2023-05-11T05:20:17.040Z,4.93
2023-05-11T05:22:44.326Z,5.78
2023-05-11T05:25:12.180Z,5.43
2023-05-11T05:27:39.468Z,5.32
2023-05-11T05:30:09.849Z,7.32
2023-05-11T05:32:36.868Z,7.78
2023-05-11T05:35:04.140Z,6.03
2023-05-11T05:37:31.195Z,8.10
2023-05-11T05:39:59.149Z,5.18
2023-05-11T05:42:26.191Z,6.13
2023-05-11T05:44:53.322Z,5.28
2023-05-11T05:47:21.304Z,5.70
2023-05-11T05:49:48.386Z,6.50
2023-05-11T05:52:15.498Z,5.47
2023-05-11T05:54:43.344Z,4.95
2023-05-11T05:57:10.639Z,5.53
2023-05-11T05:59:37.642Z,5.05
2023-05-11T06:02:06.493Z,6.07
2023-05-11T06:04:33.897Z,4.63
2023-05-11T06:07:01.074Z,5.13
2023-05-11T06:09:28.060Z,4.85
2023-05-11T06:11:55.053Z,5.68
2023-05-11T06:14:24.242Z,9.65
2023-05-11T06:16:51.705Z,5.75
2023-05-11T06:19:18.648Z,6.57
2023-05-11T06:21:46.240Z,4.68
2023-05-11T06:24:14.430Z,5.15
2023-05-11T06:26:43.319Z,4.90
2023-05-11T06:29:11.106Z,6.20
2023-05-11T06:31:39.005Z,6.22
2023-05-11T06:34:09.135Z,5.25
2023-05-11T06:36:36.923Z,5.63
2023-05-11T06:39:05.247Z,5.22
2023-05-11T06:41:32.497Z,7.82
2023-05-11T06:43:59.982Z,6.18
2023-05-11T06:46:33.057Z,4.70
2023-05-11T06:49:00.981Z,5.53
2023-05-11T06:51:28.045Z,5.63
2023-05-11T06:53:55.037Z,7.65
2023-05-11T06:56:22.338Z,4.95
2023-05-11T06:58:49.355Z,5.88
2023-05-11T07:01:17.033Z,4.63
2023-05-11T07:03:44.187Z,5.28
2023-05-11T07:06:11.213Z,4.38
2023-05-11T07:08:38.692Z,5.75
2023-05-11T07:11:05.792Z,5.82
2023-05-11T07:13:32.912Z,4.57
2023-05-11T07:15:59.913Z,4.55
2023-05-11T07:18:27.344Z,6.03
2023-05-11T07:20:54.395Z,4.22
2023-05-11T07:23:21.581Z,6.55
2023-05-11T07:25:48.587Z,6.13
2023-05-11T07:28:15.562Z,4.50
2023-05-11T07:30:42.573Z,5.43
2023-05-11T07:33:10.138Z,4.43
2023-05-11T07:35:37.157Z,4.72
2023-05-11T07:38:06.243Z,4.32
2023-05-11T07:40:33.318Z,4.88
2023-05-11T07:43:00.354Z,6.60
2023-05-11T07:45:27.426Z,6.18
2023-05-11T07:47:54.452Z,5.75
2023-05-11T07:50:23.914Z,5.03
2023-05-11T07:52:51.659Z,5.50
2023-05-11T07:55:20.526Z,5.97
2023-05-11T07:57:47.754Z,4.78
2023-05-11T08:00:15.754Z,5.07
2023-05-11T08:02:42.974Z,4.63
2023-05-11T08:05:10.256Z,4.05
2023-05-11T08:07:39.583Z,3.92
2023-05-11T08:10:08.746Z,4.28
2023-05-11T08:12:36.952Z,4.18
2023-05-11T08:15:04.922Z,5.32
2023-05-11T08:17:32.440Z,5.72
2023-05-11T08:19:59.494Z,5.03
2023-05-11T08:22:26.493Z,4.85
2023-05-11T08:24:53.510Z,3.70
2023-05-11T08:27:20.578Z,3.92
2023-05-11T08:29:47.521Z,6.43
2023-05-11T08:32:14.736Z,4.22
2023-05-11T08:34:41.818Z,3.67
2023-05-11T08:37:08.904Z,5.20
2023-05-11T08:39:46.509Z,3.63
2023-05-11T08:42:17.316Z,3.38
2023-05-11T08:44:44.621Z,4.05
2023-05-11T08:47:22.701Z,3.95
2023-05-11T08:49:51.254Z,3.85
2023-05-11T08:52:18.304Z,3.47
2023-05-11T08:54:48.418Z,3.83
2023-05-11T08:57:15.677Z,3.97
2023-05-11T08:59:44.981Z,3.80
2023-05-11T09:02:16.376Z,3.10
2023-05-11T09:04:46.041Z,4.97
2023-05-11T09:07:18.047Z,6.13
2023-05-11T09:09:46.066Z,3.17
2023-05-11T09:12:13.241Z,4.18
2023-05-11T09:14:40.400Z,3.85
2023-05-11T09:17:07.493Z,3.88
2023-05-11T09:19:34.978Z,4.68
2023-05-11T09:22:02.134Z,3.30
2023-05-11T09:24:29.262Z,4.30
2023-05-11T09:27:09.314Z,3.55
2023-05-11T09:29:36.583Z,2.78
2023-05-11T09:32:04.267Z,4.00
2023-05-11T09:34:31.543Z,4.60
2023-05-11T09:36:58.617Z,5.20
2023-05-11T09:39:42.220Z,3.67
2023-05-11T09:44:48.749Z,6.85
2023-05-11T09:47:19.412Z,2.88
2023-05-11T09:49:47.161Z,3.97
2023-05-11T09:52:18.680Z,3.22
2023-05-11T09:54:46.968Z,2.53
2023-05-11T09:57:30.179Z,2.38
2023-05-11T09:59:58.246Z,2.80
2023-05-11T10:02:26.997Z,3.35
2023-05-11T10:04:56.190Z,3.30
2023-05-11T10:07:33.861Z,3.53
2023-05-11T10:10:02.945Z,2.55
2023-05-11T10:12:30.607Z,2.58
2023-05-11T10:15:03.827Z,2.30
2023-05-11T10:17:31.464Z,3.60
2023-05-11T10:19:59.114Z,2.95
2023-05-11T10:22:26.709Z,3.30
2023-05-11T10:24:54.155Z,3.08
2023-05-11T10:27:21.238Z,3.80
2023-05-11T10:29:48.698Z,2.88
2023-05-11T10:32:17.057Z,3.95
2023-05-11T10:34:44.871Z,4.82
2023-05-11T10:37:12.222Z,3.78
2023-05-11T10:39:42.937Z,3.55
2023-05-11T10:42:33.717Z,5.10
2023-05-11T10:45:07.884Z,3.67
2023-05-11T10:47:41.756Z,3.63
2023-05-11T10:50:27.136Z,3.25
2023-05-11T10:53:13.976Z,2.83
2023-05-11T10:56:12.431Z,2.83
2023-05-11T10:58:58.143Z,2.88
2023-05-11T11:01:40.210Z,4.22
2023-05-11T11:04:11.703Z,2.85
2023-05-11T11:06:42.664Z,3.22
2023-05-11T11:09:16.370Z,4.75
2023-05-11T11:11:48.144Z,4.03
2023-05-11T11:14:16.712Z,3.22
2023-05-11T11:17:14.746Z,3.53
2023-05-11T11:19:42.793Z,5.47
2023-05-11T11:22:34.675Z,3.15
2023-05-11T11:25:11.776Z,3.38
2023-05-11T11:27:41.814Z,2.55
2023-05-11T11:30:29.026Z,3.17
2023-05-11T11:33:08.144Z,3.88
2023-05-11T11:35:45.086Z,3.60
2023-05-11T11:38:19.029Z,3.30
2023-05-11T11:40:52.801Z,2.55
2023-05-11T11:43:24.934Z,3.20
2023-05-11T11:45:55.504Z,3.10
2023-05-11T11:48:31.479Z,4.15
2023-05-11T11:51:08.746Z,3.55
2023-05-11T11:53:42.140Z,5.20
2023-05-11T11:56:28.977Z,4.57
2023-05-11T11:58:55.996Z,3.53
2023-05-11T12:01:25.848Z,3.08
2023-05-11T12:04:36.881Z,2.83
2023-05-11T12:07:03.985Z,3.50
2023-05-11T12:09:31.092Z,4.93
2023-05-11T12:11:58.044Z,3.65
2023-05-11T12:14:25.084Z,4.20
2023-05-11T12:17:05.906Z,3.53
2023-05-11T12:19:32.944Z,3.97
2023-05-11T12:22:00.117Z,8.05
2023-05-11T12:24:27.329Z,4.90
2023-05-11T12:26:57.596Z,5.13
2023-05-11T12:29:24.881Z,4.50
2023-05-11T12:31:51.957Z,4.15
2023-05-11T12:34:21.457Z,3.45
2023-05-11T12:36:50.070Z,3.67
2023-05-11T12:39:24.139Z,3.58
2023-05-11T12:41:52.252Z,4.60
2023-05-11T12:44:19.530Z,3.78
2023-05-11T12:46:47.235Z,3.55
2023-05-11T12:51:52.953Z,3.50
2023-05-11T12:54:51.702Z,4.10
2023-05-11T12:57:31.808Z,4.28
2023-05-11T13:00:10.134Z,2.78
2023-05-11T13:02:51.089Z,3.88
2023-05-11T13:05:22.063Z,2.28
2023-05-11T13:07:57.734Z,2.78
2023-05-11T13:10:25.584Z,2.78
2023-05-11T13:12:52.876Z,3.28
2023-05-11T13:15:21.936Z,4.35
2023-05-11T13:17:50.362Z,4.47
2023-05-11T13:20:24.641Z,4.65
2023-05-11T13:22:51.677Z,4.72
2023-05-11T13:25:20.186Z,4.57
2023-05-11T13:27:47.476Z,3.38
2023-05-11T13:30:14.665Z,3.88
2023-05-11T13:32:41.722Z,2.88
2023-05-11T13:35:09.161Z,3.40
2023-05-11T13:37:36.179Z,4.15
2023-05-11T13:40:06.718Z,3.75
2023-05-11T13:42:33.933Z,4.13
2023-05-11T13:45:01.084Z,3.17
2023-05-11T13:47:28.061Z,4.07
2023-05-11T13:49:55.117Z,4.47
2023-05-11T13:52:22.500Z,3.22
2023-05-11T13:54:49.628Z,3.35
2023-05-11T13:57:16.865Z,3.70
2023-05-11T13:59:43.908Z,3.72
2023-05-11T14:02:11.716Z,4.30
2023-05-11T14:04:40.445Z,3.97
2023-05-11T14:07:07.574Z,3.75
2023-05-11T14:09:34.621Z,3.80
2023-05-11T14:12:01.580Z,3.45
2023-05-11T14:14:28.604Z,2.95
2023-05-11T14:16:56.350Z,2.70
2023-05-11T14:19:23.345Z,3.47
2023-05-11T14:21:50.628Z,3.17
2023-05-11T14:24:17.640Z,3.85
2023-05-11T14:26:44.680Z,3.67
2023-05-11T14:29:11.661Z,3.22
2023-05-11T14:31:39.212Z,4.07
2023-05-11T14:34:06.498Z,2.72
2023-05-11T14:36:33.523Z,3.75
2023-05-11T14:39:00.768Z,3.53
2023-05-11T14:41:27.753Z,3.63
2023-05-11T14:43:54.786Z,2.95
2023-05-11T14:46:22.749Z,3.95
2023-05-11T14:48:52.132Z,4.47
2023-05-11T14:51:19.078Z,3.17
2023-05-11T14:53:46.061Z,3.63
2023-05-11T14:56:13.050Z,4.20
2023-05-11T14:58:40.086Z,5.18
2023-05-11T15:01:07.273Z,5.68
2023-05-11T15:03:37.206Z,4.53
2023-05-11T15:06:04.452Z,5.35
2023-05-11T15:08:32.060Z,3.97
2023-05-11T15:10:59.130Z,4.88
2023-05-11T15:13:26.169Z,4.10
2023-05-11T15:15:53.334Z,4.93
2023-05-11T15:18:20.606Z,3.55
2023-05-11T15:20:47.608Z,6.22
2023-05-11T15:23:17.886Z,2.72
2023-05-11T15:25:45.437Z,3.78
2023-05-11T15:28:12.711Z,4.45
2023-05-11T15:30:41.765Z,3.80
2023-05-11T15:33:09.977Z,3.90
2023-05-11T15:35:37.487Z,3.58
2023-05-11T15:38:05.554Z,3.22
2023-05-11T15:40:32.671Z,3.60
2023-05-11T15:43:00.285Z,4.32
2023-05-11T15:45:27.381Z,4.88
2023-05-11T15:47:54.515Z,3.65
2023-05-11T15:50:22.337Z,4.53
2023-05-11T15:52:49.617Z,3.67
2023-05-11T15:55:16.675Z,6.25
2023-05-11T15:57:43.671Z,5.38
2023-05-11T16:00:11.538Z,6.95
2023-05-11T16:02:38.802Z,3.63
2023-05-11T16:05:06.347Z,12.13
2023-05-11T16:07:34.022Z,5.15
2023-05-11T16:10:01.458Z,3.47
2023-05-11T16:12:28.702Z,3.83
2023-05-11T16:14:56.002Z,11.13
2023-05-11T16:17:23.020Z,8.70
2023-05-11T16:19:50.037Z,4.90
2023-05-11T16:22:17.017Z,5.20
2023-05-11T16:24:44.020Z,9.10
2023-05-11T16:27:11.070Z,8.23
2023-05-11T16:29:38.108Z,6.68
2023-05-11T16:32:05.449Z,5.80
2023-05-11T16:34:32.727Z,4.03
2023-05-11T16:36:59.738Z,3.30
2023-05-11T16:39:26.942Z,3.20
2023-05-11T16:41:53.952Z,2.60
2023-05-11T16:44:21.231Z,2.00
2023-05-11T16:46:49.139Z,3.83
2023-05-11T16:49:16.733Z,2.83
2023-05-11T16:51:43.855Z,1.65
2023-05-11T16:54:11.313Z,3.15
2023-05-11T16:56:38.365Z,3.80
2023-05-11T16:59:05.393Z,2.75
2023-05-11T17:01:34.176Z,2.42
2023-05-11T17:04:01.404Z,1.63
2023-05-11T17:06:28.782Z,2.55
2023-05-11T17:08:55.819Z,2.70
2023-05-11T17:11:23.832Z,3.17
2023-05-11T17:13:51.443Z,3.22
2023-05-11T17:16:18.561Z,3.58
2023-05-11T17:18:46.492Z,3.08
2023-05-11T17:21:13.623Z,4.30
2023-05-11T17:23:40.692Z,3.00
2023-05-11T17:26:11.475Z,3.05
2023-05-11T17:28:39.191Z,3.28
2023-05-11T17:31:13.169Z,4.10
2023-05-11T17:33:40.858Z,4.03
2023-05-11T17:36:08.484Z,4.47
2023-05-11T17:38:35.533Z,2.75
2023-05-11T17:41:05.972Z,4.85
2023-05-11T17:43:33.770Z,6.07
2023-05-11T17:46:03.981Z,7.18
2023-05-11T17:48:32.198Z,4.35
2023-05-11T17:50:59.501Z,6.10
2023-05-11T17:53:27.441Z,3.83
2023-05-11T17:55:54.541Z,3.90
2023-05-11T17:58:21.538Z,2.50
2023-05-11T18:00:49.534Z,3.15
2023-05-11T18:03:17.068Z,3.90
2023-05-11T18:08:14.430Z,3.90
2023-05-11T18:10:41.657Z,4.38
2023-05-11T18:13:09.000Z,4.07
2023-05-11T18:15:36.051Z,3.72
2023-05-11T18:18:03.522Z,3.50
2023-05-11T18:20:31.021Z,3.20
2023-05-11T18:22:58.227Z,4.80
2023-05-11T18:25:28.073Z,4.13
2023-05-11T18:27:55.227Z,3.65
2023-05-11T18:30:22.442Z,3.10
2023-05-11T18:32:49.555Z,5.43
2023-05-11T18:35:17.092Z,7.30
2023-05-11T18:37:44.151Z,9.40
2023-05-11T18:40:11.701Z,8.23
2023-05-11T18:42:38.779Z,9.60
2023-05-11T18:45:07.544Z,3.67
2023-05-11T18:47:36.020Z,3.38
2023-05-11T18:50:04.200Z,3.17
2023-05-11T18:52:31.741Z,3.05
2023-05-11T18:54:58.837Z,2.72
2023-05-11T18:57:25.950Z,2.78
2023-05-11T18:59:53.161Z,2.88
2023-05-11T19:02:20.371Z,4.30
2023-05-11T19:04:47.508Z,6.70
2023-05-11T19:07:14.561Z,10.15
2023-05-11T19:09:41.669Z,6.75
2023-05-11T19:12:09.000Z,4.20
2023-05-11T19:14:37.655Z,4.40
2023-05-11T19:17:05.365Z,5.53
2023-05-11T19:19:33.233Z,4.10
2023-05-11T19:22:00.347Z,3.58
2023-05-11T19:24:28.508Z,1.92
2023-05-11T19:27:06.544Z,1.98
2023-05-11T19:29:35.650Z,2.35
2023-05-11T19:32:03.290Z,4.28
2023-05-11T19:34:30.458Z,3.95
2023-05-11T19:36:57.477Z,2.63
2023-05-11T19:39:24.670Z,3.20
2023-05-11T19:41:52.163Z,2.97
2023-05-11T19:44:19.283Z,2.00
2023-05-11T19:46:47.295Z,3.75
2023-05-11T19:49:15.512Z,2.00
2023-05-11T19:51:43.101Z,2.17
2023-05-11T19:54:11.025Z,1.95
2023-05-11T19:56:38.251Z,1.50
2023-05-11T19:59:05.397Z,1.58
2023-05-11T20:01:33.057Z,2.28
2023-05-11T20:04:00.255Z,3.30
2023-05-11T20:06:27.388Z,2.92
2023-05-11T20:08:54.589Z,2.50
2023-05-11T20:11:22.255Z,3.28
2023-05-11T20:13:49.541Z,2.03
2023-05-11T20:16:16.697Z,2.92
2023-05-11T20:18:43.980Z,2.97
2023-05-11T20:21:11.116Z,3.55
2023-05-11T20:23:40.322Z,3.85
2023-05-11T20:26:07.476Z,3.55
2023-05-11T20:28:34.501Z,6.18
2023-05-11T20:31:01.709Z,4.63
2023-05-11T20:35:59.085Z,4.05
2023-05-11T20:38:26.065Z,2.50
2023-05-11T20:40:59.432Z,3.70
2023-05-11T20:43:26.410Z,2.15
2023-05-11T20:45:54.047Z,2.75
2023-05-11T20:48:32.060Z,4.38
2023-05-11T20:51:03.240Z,2.47
2023-05-11T20:53:31.146Z,2.90
2023-05-11T20:55:58.146Z,4.03
2023-05-11T20:58:26.575Z,5.57
2023-05-11T21:00:53.615Z,7.00
2023-05-11T21:03:20.967Z,5.43
2023-05-11T21:05:47.999Z,4.68
2023-05-11T21:08:15.410Z,4.40
2023-05-11T21:10:42.444Z,4.43
2023-05-11T21:13:09.450Z,3.30
2023-05-11T21:15:36.404Z,4.50
2023-05-11T21:18:03.526Z,3.72
2023-05-11T21:20:30.624Z,3.83
2023-05-11T21:22:58.194Z,3.70
2023-05-11T21:25:25.307Z,3.80
2023-05-11T21:27:52.284Z,3.65
2023-05-11T21:30:19.400Z,3.90
2023-05-11T21:32:46.954Z,4.60
2023-05-11T21:35:15.091Z,4.72
2023-05-11T21:37:43.423Z,4.53
2023-05-11T21:40:11.881Z,4.90
2023-05-11T21:42:38.865Z,5.28
2023-05-11T21:45:06.714Z,6.95
2023-05-11T21:47:34.061Z,7.63
2023-05-11T21:50:01.243Z,7.63
2023-05-11T21:52:28.286Z,7.60
2023-05-11T21:54:55.234Z,9.30
2023-05-11T21:57:22.419Z,8.68
2023-05-11T21:59:51.149Z,7.85
2023-05-11T22:02:18.359Z,11.70
2023-05-11T22:04:46.403Z,9.93
2023-05-11T22:07:13.555Z,9.32
2023-05-11T22:09:40.597Z,11.73
2023-05-11T22:12:08.145Z,8.45
2023-05-11T22:14:35.338Z,9.80
2023-05-11T22:17:02.367Z,10.10
2023-05-11T22:19:30.034Z,8.95
2023-05-11T22:21:57.140Z,9.70
2023-05-11T22:24:27.396Z,13.18
2023-05-11T22:26:54.941Z,10.52
2023-05-11T22:29:21.930Z,9.73
2023-05-11T22:31:52.047Z,10.25
2023-05-11T22:34:22.246Z,9.25
2023-05-11T22:36:49.290Z,11.27
2023-05-11T22:39:16.387Z,9.88
2023-05-11T22:41:43.375Z,8.88
2023-05-11T22:44:10.756Z,9.57
2023-05-11T22:46:37.840Z,11.63
2023-05-11T22:49:04.956Z,8.65
2023-05-11T22:51:31.980Z,8.70
2023-05-11T22:53:58.992Z,10.95
2023-05-11T22:56:26.081Z,12.45
2023-05-11T22:58:54.987Z,11.02
2023-05-11T23:01:22.029Z,8.23
2023-05-11T23:03:49.152Z,10.35
2023-05-11T23:06:16.454Z,10.82
2023-05-11T23:08:43.516Z,8.73
2023-05-11T23:11:10.505Z,10.10
2023-05-11T23:13:38.246Z,9.50
2023-05-11T23:16:05.427Z,9.35
2023-05-11T23:18:32.967Z,10.73
2023-05-11T23:21:00.321Z,10.02
2023-05-11T23:23:27.329Z,11.65
2023-05-11T23:25:54.372Z,8.65
2023-05-11T23:28:21.355Z,10.18
2023-05-11T23:30:48.388Z,8.43
2023-05-11T23:33:15.348Z,11.05
2023-05-11T23:35:42.363Z,9.23
2023-05-11T23:38:09.430Z,9.68
2023-05-11T23:40:36.463Z,10.48
2023-05-11T23:43:03.500Z,9.30
2023-05-11T23:45:30.889Z,10.65
2023-05-11T23:47:58.113Z,10.13
2023-05-11T23:50:25.140Z,9.82
2023-05-11T23:52:52.096Z,11.48
2023-05-11T23:55:19.285Z,11.27
2023-05-11T23:57:46.269Z,10.70
